Narrabri West, New South Wales

6:18 PM EST on August 30, 2014 (GMT +1000)
Moree | Change Station
CLOSE
Current Station
Airport
Location: Moree Airport, NSW,
Elevation: 699 ft
Nearby Weather Stations

Elev 699 ft 29.50 °S, 149.85 °E | Updated 1 hour ago

Clear
Clear
68 °F
Feels Like 68 °F
N
17
Wind Variable Wind from SSW

Today
High -- | Low -- °F
--% Chance of Precip.
Yesterday
High -- | Low -- °F
Precip. -- in
6:19 AM 5:44 PM
Waxing Crescent, 20% visible
Pressure 30.06 in
Visibility 6.2 miles
Clouds
Dew Point 45 °F
Humidity 43%
Rainfall 0.00 in
Snow Depth Not available.
UV Not available.
Pollen Not available.
Air Quality Not available.
Flu Activity Not available.
METAR YMOR 300700Z AUTO 20015KT 9999 // NCD 20/07 Q1018

More Conditions Fewer Conditions

Pressure 30.06 in
Visibility 6.2 miles
Clouds
Dew Point 45 °F
Humidity 43%
Rainfall 0.00 in
Snow Depth Not available.
UV Not available.
Pollen Not available.
Air Quality Not available.
Flu Activity Not available.
METAR YMOR 300700Z AUTO 20015KT 9999 // NCD 20/07 Q1018

More Conditions Fewer Conditions

10-Day Weather Forecast

Almanac

Astronomy

Aug. 30, 2014 Rise Set
Actual Time 6:19 AM EST 5:44 PM EST
Civil Twilight 5:55 AM EST 6:08 PM EST
Nautical Twilight 5:27 AM EST 6:36 PM EST
Astronomical Twilight 4:59 AM EST 7:04 PM EST
Moon 8:40 AM EST 9:51 PM EST
Length of Visible Light 12h 13m
Length of Day
11h 24m
Tomorrow will be 1m 44s longer.
Waxing Crescent, 20% of the Moon is Illuminated
Today
Waxing Crescent
Sep 2
First Quarter
Sep 8
Full
Sep 15
Last Quarter
Sep 24
New

Yesterday's Extremes

Country Highs Country Lows

Community

WunderPhotos

Upload Photos

1,748,468 photos uploaded!

Nearby

Snow Depth

Not available.

Earthquake Activity

City Distance Mag. Time & Date
No recent earthquake activity has been reported nearby.
Minimum magnitude displayed is 2.5.

Coastal Water Temperatures

Place Temperature
No Stations Reporting

Nearby Weather Stations